Russell Township, Ohio
Current Conditions -  °F | °C
As of 6:45 PM on Monday 20 Oct 2014 (Local Time) from KCGF Reporting Station
Rain Showers Rain Showers  
Wind Chill: 54°   Ceiling: 1600
Heat Index: 54°   Visibility: 5mi
Dew Point: 52°   Wind: 9mph
Humidity: 94%   Direction: 260°W
Pressure: 29.84"   Gusts: NA
Location:  41.4688°N, 81.3252°W
Report Text: KCGF 202245Z 26008KT 5SM -SHRA BKN016 OVC025 12/11 A2984
Loading
Personal Weather Stations






























Interactive Weather Map
Tropical Storm Tracking
New forecast layout! Learn more

10-Day Weather Forecast

Advertisements
Track Severe Weather on mobile